Latest Weather Observations for Woolshed

IDQ60801

Issued at 9:32 pm EST Monday 27 April 2015 (issued every 30 minutes, with the page automatically refreshed every 10 minutes)

About weather observations | Map of weather stations | Latest weather observations for QLD | Other Formats
Station Details ID: 033307 Name: WOOLSHED Lat: -19.42 Lon: 146.54 Height: 556.04 m
Data from the previous 72 hours. | See also: Recent months at Woolshed
Date/Time
EST
Temp
°C
App
Temp
°C
Dew
Point
Rel
Hum
%
Delta-T
°C
Wind Press
QNH
hPa
Press
MSL
hPa
Rain
since 9 am
mm
Dir
 
Spd
km/h
Gust
km/h
Spd
kts
Gust
kts
27/09:30pm 16.6 16.0 12.2 75 2.5 NNE 7 11 4 6 1020.6 1017.7 0.0
27/09:00pm 15.6 15.6 12.5 82 1.7 ENE 4 6 2 3 1020.5 1017.6 0.0
27/08:30pm 16.9 17.0 12.8 77 2.3 NNE 4 6 2 3 1020.2 1017.3 0.0
27/08:00pm 16.7 17.2 12.8 78 2.2 NNE 2 7 1 4 1019.7 1016.8 0.0
27/07:30pm 17.2 17.7 12.9 76 2.5 NNE 2 7 1 4 1019.3 1016.4 0.0
27/07:00pm 17.8 18.0 12.9 73 2.8 NNE 4 11 2 6 1018.9 1016.0 0.0
27/06:30pm 18.1 17.6 12.1 68 3.4 NNE 6 9 3 5 1018.4 1015.5 0.0
27/06:00pm 19.0 18.2 11.8 63 4.1 NNE 7 11 4 6 1018.0 1015.1 0.0
27/05:30pm - - - - - NNE 7 15 4 8 1017.8 1014.9 0.0
27/05:00pm - - - - - N 11 22 6 12 1017.5 1014.6 0.0
27/04:30pm 23.2 21.4 10.9 46 7.0 NNE 11 19 6 10 1017.2 1014.3 0.0
27/04:00pm 23.9 21.8 9.9 41 7.9 NNE 11 19 6 10 1016.9 1014.0 0.0
27/03:30pm 26.1 23.0 3.4 23 11.5 NNE 9 22 5 12 1016.8 1013.9 0.0
27/03:00pm 26.4 23.5 1.7 20 12.2 NE 6 13 3 7 1016.7 1013.8 0.0
27/02:30pm 26.8 23.9 2.7 21 12.1 NNE 7 13 4 7 1016.7 1013.8 0.0
27/02:00pm 26.4 23.4 1.7 20 12.2 NE 7 15 4 8 1016.9 1014.0 0.0
27/01:30pm 26.2 23.4 2.2 21 11.9 ESE 6 11 3 6 1017.1 1014.2 0.0
27/01:00pm 25.6 22.8 2.3 22 11.5 SW 6 11 3 6 1017.5 1014.6 0.0
27/12:30pm 24.8 21.8 1.7 22 11.3 NE 7 13 4 7 1017.9 1015.0 0.0
27/12:00pm 24.8 21.9 1.7 22 11.2 E 6 13 3 7 1018.4 1015.5 0.0
27/11:30am 24.1 20.8 0.4 21 11.2 SE 7 13 4 7 1018.9 1016.0 0.0
27/11:00am 23.9 20.8 1.5 23 10.8 SE 7 13 4 7 1019.4 1016.5 0.0
27/10:30am 23.2 20.0 0.9 23 10.6 SE 7 15 4 8 1019.8 1016.9 0.0
27/10:00am 22.9 19.3 0.7 23 10.5 ESE 9 15 5 8 1020.2 1017.3 0.0
27/09:30am 22.5 18.8 -0.3 22 10.5 ESE 9 17 5 9 1020.2 1017.3 0.0
27/09:00am 21.9 18.1 -0.8 22 10.3 SSE 9 19 5 10 1019.8 1016.9 0.0
27/08:30am 20.0 16.8 1.0 28 8.8 S 7 11 4 6 1019.7 1016.8 0.0
27/08:00am 17.0 13.7 -0.2 31 7.6 SSW 7 9 4 5 1019.5 1016.6 0.0
27/07:30am 14.7 11.2 -1.4 33 6.8 S 7 11 4 6 1019.4 1016.5 0.0
27/07:00am 11.9 8.8 0.1 44 5.0 S 6 9 3 5 1019.1 1016.2 0.0
27/06:30am 7.8 4.8 0.5 60 3.0 S 6 7 3 4 1018.8 1015.9 0.0
27/06:00am 9.0 6.3 0.2 54 3.6 S 4 6 2 3 1018.6 1015.7 0.0
27/05:30am 8.9 6.6 0.1 54 3.6 SW 2 4 1 2 1018.3 1015.4 0.0
27/05:00am 10.1 7.7 -0.4 48 4.3 SW 2 4 1 2 1018.0 1015.1 0.0
27/04:30am 8.4 5.8 0.9 59 3.1 SW 4 6 2 3 1017.8 1014.9 0.0
27/04:28am 8.3 5.7 1.2 61 3.0 SW 4 6 2 3 1017.8 1014.9 0.0
27/04:00am 13.4 10.0 -1.7 35 6.2 SSW 6 7 3 4 1017.7 1014.8 0.0
27/03:30am 14.9 11.6 -1.6 32 6.9 SSW 6 11 3 6 1017.8 1014.9 0.0
27/03:00am 14.2 11.0 -0.3 37 6.2 SSW 6 11 3 6 1017.8 1014.9 0.0
27/02:30am 14.6 11.4 -0.3 36 6.4 SW 6 11 3 6 1017.8 1014.9 0.0
27/02:00am 13.1 9.9 0.5 42 5.5 SW 7 11 4 6 1017.8 1014.9 0.0
27/01:30am 13.0 10.0 1.0 44 5.3 SW 6 11 3 6 1017.9 1015.0 0.0
27/01:00am 10.6 8.1 1.4 53 4.0 SSW 4 7 2 4 1017.9 1015.0 0.0
27/12:30am 13.6 11.7 0.3 40 5.8 CALM 0 2 0 1 1018.2 1015.2 0.0
27/12:00am 13.3 11.3 0.0 40 5.7 CALM 0 6 0 3 1018.5 1015.6 0.0
 
Date/Time
EST
Temp
°C
App
Temp
°C
Dew
Point
Rel
Hum
%
Delta-T
°C
Wind Press
QNH
hPa
Press
MSL
hPa
Rain
since 9 am
mm
Dir
 
Spd
km/h
Gust
km/h
Spd
kts
Gust
kts
26/11:30pm 13.3 11.1 1.3 44 5.3 S 2 4 1 2 1018.6 1015.7 0.0
26/11:00pm 11.8 9.3 1.7 50 4.4 S 4 6 2 3 1018.7 1015.8 0.0
26/10:30pm 11.7 - - - - S 4 6 2 3 1018.9 1016.0 0.0
26/10:00pm 13.2 - - - - SSW 2 6 1 3 1018.9 1016.0 0.0
26/09:30pm 15.6 - - - - SSW 2 4 1 2 1019.0 1016.1 0.0
26/09:00pm 15.7 - - - - SSW 4 7 2 4 1018.9 1016.0 0.0
26/08:30pm 15.7 - - - - SSW 7 11 4 6 1018.6 1015.7 0.0
26/08:00pm 14.8 - - - - SSW 4 9 2 5 1018.3 1015.4 0.0
26/07:30pm 14.1 - - - - SSW 4 7 2 4 1017.8 1014.9 0.0
26/07:00pm 15.3 - - - - SSW 4 6 2 3 1017.4 1014.5 0.0
26/06:30pm 18.9 - - - - SSW 2 4 1 2 1017.0 1014.1 0.0
26/06:00pm 21.4 - - - - SSW 2 4 1 2 1016.8 1013.9 0.0
26/05:30pm 24.1 - - - - S 6 9 3 5 1016.4 1013.4 0.0
26/05:00pm 25.2 - - - - SSW 6 13 3 7 1015.9 1013.0 0.0
26/04:30pm 26.6 - - - - SSW 7 13 4 7 1015.7 1012.8 0.0
26/04:00pm 26.4 - - - - S 7 17 4 9 1015.3 1012.4 0.0
26/03:30pm 26.9 - - - - S 9 19 5 10 1015.2 1012.3 0.0
26/03:00pm 27.1 - - - - S 9 17 5 9 1015.1 1012.2 0.0
26/02:30pm 26.9 - - - - SSW 13 24 7 13 1015.2 1012.3 0.0
26/02:00pm 25.8 - - - - SSW 11 24 6 13 1015.5 1012.6 0.0
26/01:30pm 25.8 - - - - SSW 11 20 6 11 1015.7 1012.8 0.0
26/01:00pm 25.7 - - - - SSW 9 22 5 12 1016.3 1013.3 0.0
26/12:30pm 24.3 - - - - SSW 13 20 7 11 1016.7 1013.8 0.0
26/12:00pm 24.1 - - - - SSW 13 28 7 15 1017.1 1014.2 0.0
26/11:30am 23.9 - - - - SSW 15 28 8 15 1017.3 1014.4 0.0
26/11:00am 22.4 - - - - SSW 15 28 8 15 1017.6 1014.7 0.0
26/10:30am 22.0 - - - - SW 15 26 8 14 1017.9 1015.0 0.0
26/10:00am 21.1 - - - - SSW 17 37 9 20 1018.0 1015.1 0.0
26/09:30am 20.0 - - - - SSW 17 33 9 18 1017.8 1014.9 0.0
26/09:00am 19.3 - - - - SSW 15 30 8 16 1017.5 1014.6 0.0
26/08:30am 18.7 - - - - SSW 17 30 9 16 1017.4 1014.5 0.0
26/08:00am 18.0 - - - - SSW 15 32 8 17 1017.1 1014.2 0.0
26/07:30am 17.1 - - - - SSW 13 22 7 12 1016.9 1014.0 0.0
26/07:00am 16.4 - - - - SSW 9 19 5 10 1016.9 1014.0 0.0
26/06:30am 16.5 - - - - SSW 9 15 5 8 1016.6 1013.6 0.0
26/06:00am 16.9 - - - - SSW 15 26 8 14 1016.1 1013.2 0.0
26/05:30am 17.1 - - - - SW 13 28 7 15 1015.8 1012.9 0.0
26/05:00am 17.9 - - - - SSW 17 32 9 17 1015.5 1012.6 0.0
26/04:30am 17.6 - - - - SW 13 24 7 13 1015.3 1012.4 0.0
26/04:00am 18.1 - - - - SW 13 28 7 15 1015.2 1012.3 0.0
26/03:30am 18.6 - - - - SSW 13 24 7 13 1015.1 1012.2 0.0
26/03:00am 18.9 - - - - SSW 11 20 6 11 1015.1 1012.2 0.0
26/02:30am 19.3 - - - - SSW 13 24 7 13 1015.3 1012.4 0.0
26/02:00am 19.5 - - - - SSW 11 24 6 13 1015.3 1012.4 0.0
26/01:30am 19.9 - - - - SSW 13 24 7 13 1015.4 1012.5 0.0
26/01:00am 20.3 - - - - SSW 11 20 6 11 1015.6 1012.7 0.0
26/12:30am 20.2 - - - - SSW 9 15 5 8 1015.8 1012.9 0.0
26/12:00am 20.4 - - - - SSW 9 13 5 7 1015.9 1013.0 0.0
 
Date/Time
EST
Temp
°C
App
Temp
°C
Dew
Point
Rel
Hum
%
Delta-T
°C
Wind Press
QNH
hPa
Press
MSL
hPa
Rain
since 9 am
mm
Dir
 
Spd
km/h
Gust
km/h
Spd
kts
Gust
kts
25/11:30pm 20.2 - - - - SW 9 17 5 9 1016.0 1013.1 0.0
25/11:00pm 19.5 - - - - SW 7 13 4 7 1016.0 1013.1 0.0
25/10:30pm 19.1 - - - - SSW 9 13 5 7 1016.1 1013.2 0.0
25/10:00pm 14.6 - - - - SSW 4 9 2 5 1016.3 1013.3 0.0
25/09:30pm 14.4 - - - - CALM 0 0 0 0 1016.0 1013.1 0.0
25/09:00pm 15.8 - - - - CALM 0 0 0 0 1015.9 1013.0 0.0
25/08:30pm 16.2 - - - - CALM 0 0 0 0 1015.8 1012.9 0.0
25/08:00pm 17.1 - - - - CALM 0 0 0 0 1015.4 1012.5 0.0
25/07:30pm 17.8 - - - - CALM 0 0 0 0 1015.0 1012.0 0.0
25/07:00pm 19.7 - - - - NE 2 4 1 2 1014.7 1011.7 0.0
25/06:30pm 20.2 - - - - NNE 4 7 2 4 1014.2 1011.3 0.0
25/06:00pm 21.6 - - - - NNE 6 9 3 5 1014.0 1011.1 0.0
25/05:30pm 22.6 - - - - NNE 7 13 4 7 1013.6 1010.7 0.0
25/05:00pm 23.7 - - - - NNE 9 13 5 7 1013.3 1010.3 0.0
25/04:30pm 25.2 - - - - N 9 20 5 11 1012.9 1009.9 0.0
25/04:00pm 25.8 - - - - NNE 11 17 6 9 1012.3 1009.4 0.0
25/03:30pm 27.3 - - - - NNE 9 17 5 9 1012.2 1009.3 0.0
25/03:00pm 27.3 - - - - NE 9 15 5 8 1012.2 1009.3 0.0
25/02:30pm 29.6 - - - - NNE 6 9 3 5 1012.0 1009.1 0.0
25/02:00pm 29.5 - - - - S 7 15 4 8 1012.5 1009.5 0.0
25/01:30pm 28.8 - - - - S 7 15 4 8 1012.8 1009.8 0.0
25/01:00pm 28.5 - - - - SSW 7 17 4 9 1013.1 1010.1 0.0
25/12:30pm 28.9 - - - - WSW 7 13 4 7 1013.5 1010.6 0.0
25/12:00pm 28.2 - - - - WSW 4 9 2 5 1013.8 1010.9 0.0
25/11:30am 28.1 - - - - SSE 6 9 3 5 1014.4 1011.4 0.0
25/11:00am 26.5 - - - - S 7 15 4 8 1014.8 1011.8 0.0
25/10:30am 25.8 - - - - S 9 19 5 10 1015.0 1012.0 0.0
25/10:00am 25.9 - - - - S 6 11 3 6 1015.3 1012.4 0.0
25/09:30am 24.5 - - - - SSW 7 13 4 7 1015.4 1012.5 0.0
25/09:00am 22.9 - - - - SW 7 11 4 6 1015.1 1012.2 0.0
25/08:30am 20.9 - - - - SW 4 7 2 4 1015.0 1012.0 0.0
25/08:00am 18.4 - - - - SSW 2 4 1 2 1014.8 1011.8 0.0
25/07:30am 15.3 - - - - CALM 0 0 0 0 1014.5 1011.5 0.0
25/07:00am 12.2 - - - - CALM 0 2 0 1 1014.0 1011.1 0.0
25/06:30am 10.9 - - - - CALM 0 0 0 0 1013.7 1010.8 0.0
25/06:00am 11.3 - - - - CALM 0 0 0 0 1013.6 1010.7 0.0
25/05:30am 12.0 - - - - CALM 0 0 0 0 1013.2 1010.2 0.0
25/05:00am 11.8 - - - - CALM 0 0 0 0 1013.0 1010.0 0.0
25/04:30am 11.9 - - - - CALM 0 0 0 0 1012.9 1009.9 0.0
25/04:00am 12.0 - - - - CALM 0 0 0 0 1012.7 1009.7 0.0
25/03:30am 12.5 - - - - CALM 0 0 0 0 1012.7 1009.7 0.0
25/03:00am 12.5 - - - - CALM 0 0 0 0 1012.9 1009.9 0.0
25/02:30am 12.5 - - - - CALM 0 0 0 0 1013.0 1010.0 0.0
25/02:00am 13.4 - - - - CALM 0 0 0 0 1012.8 1009.8 0.0
25/01:30am 14.4 - - - - CALM 0 2 0 1 1013.1 1010.1 0.0
25/01:00am 13.9 - - - - CALM 0 6 0 3 1013.3 1010.3 0.0
25/12:30am 16.9 - - - - NNE 4 6 2 3 1013.5 1010.6 0.0
25/12:00am 17.6 - - - - NE 6 9 3 5 1013.5 1010.6 0.0
 
Date/Time
EST
Temp
°C
App
Temp
°C
Dew
Point
Rel
Hum
%
Delta-T
°C
Wind Press
QNH
hPa
Press
MSL
hPa
Rain
since 9 am
mm
Dir
 
Spd
km/h
Gust
km/h
Spd
kts
Gust
kts
24/11:30pm 16.4 - - - - E 4 6 2 3 1013.6 1010.7 0.0
24/11:00pm 14.7 - - - - ENE 4 7 2 4 1013.7 1010.8 0.0
24/10:30pm 15.5 - - - - ENE 2 4 1 2 1013.7 1010.8 0.0
24/10:00pm 18.0 - - - - NNE 6 11 3 6 1013.8 1010.9 0.0

Other Formats:

Comma delimited format used in spreadsheet applications
http://www.bom.gov.au/fwo/IDQ60801/IDQ60801.95293.axf

JavaScript Object Notation format (JSON) in row-major order
http://www.bom.gov.au/fwo/IDQ60801/IDQ60801.95293.json